createdAt,value
2019-03-18T00:00:27.022Z,56.70
2019-03-18T00:02:55.029Z,56.80
2019-03-18T00:05:24.695Z,56.90
2019-03-18T00:07:52.760Z,57.00
2019-03-18T00:10:20.838Z,56.90
2019-03-18T00:12:51.894Z,57.30
2019-03-18T00:15:19.341Z,57.00
2019-03-18T00:17:47.466Z,57.50
2019-03-18T00:20:15.795Z,57.80
2019-03-18T00:22:45.246Z,57.20
2019-03-18T00:25:13.458Z,57.80
2019-03-18T00:27:41.987Z,58.10
2019-03-18T00:30:13.057Z,57.80
2019-03-18T00:32:41.149Z,58.30
2019-03-18T00:35:09.210Z,58.50
2019-03-18T00:37:37.199Z,58.80
2019-03-18T00:40:05.846Z,59.50
2019-03-18T00:42:33.923Z,60.00
2019-03-18T00:45:14.066Z,60.10
2019-03-18T00:47:32.659Z,60.50
2019-03-18T00:50:00.733Z,61.00
2019-03-18T00:52:30.132Z,61.20
2019-03-18T00:54:58.730Z,61.60
2019-03-18T00:57:26.789Z,62.10
2019-03-18T00:59:54.935Z,61.90
2019-03-18T01:02:22.891Z,62.40
2019-03-18T01:04:52.395Z,62.90
2019-03-18T01:07:20.490Z,63.40
2019-03-18T01:09:49.207Z,63.00
2019-03-18T01:12:17.335Z,63.50
2019-03-18T01:14:46.167Z,63.40
2019-03-18T01:17:14.705Z,63.90
2019-03-18T01:19:42.809Z,64.10
2019-03-18T01:22:11.051Z,64.00
2019-03-18T01:24:39.650Z,64.30
2019-03-18T01:27:07.772Z,64.80
2019-03-18T01:29:35.790Z,64.80
2019-03-18T01:32:04.073Z,65.30
2019-03-18T01:34:32.110Z,65.10
2019-03-18T01:37:02.017Z,65.10
2019-03-18T01:39:30.054Z,64.70
2019-03-18T01:41:58.229Z,64.70
2019-03-18T01:44:26.208Z,65.30
2019-03-18T01:46:54.231Z,65.30
2019-03-18T01:49:22.209Z,65.30
2019-03-18T01:51:50.348Z,65.50
2019-03-18T01:54:18.306Z,66.00
2019-03-18T01:56:46.490Z,65.90
2019-03-18T01:59:15.210Z,65.80
2019-03-18T02:01:43.238Z,66.90
2019-03-18T02:04:11.248Z,66.60
2019-03-18T02:06:39.551Z,66.50
2019-03-18T02:09:07.557Z,66.90
2019-03-18T02:11:36.651Z,66.90
2019-03-18T02:14:04.896Z,66.80
2019-03-18T02:16:33.135Z,66.30
2019-03-18T02:19:01.257Z,66.80
2019-03-18T02:21:29.243Z,66.80
2019-03-18T02:23:57.248Z,66.60
2019-03-18T02:26:25.324Z,66.60
2019-03-18T02:28:53.944Z,66.40
2019-03-18T02:31:22.041Z,67.10
2019-03-18T02:33:50.139Z,67.10
2019-03-18T02:36:18.117Z,67.20
2019-03-18T02:38:46.849Z,67.30
2019-03-18T02:41:15.428Z,67.20
2019-03-18T02:43:43.620Z,67.40
2019-03-18T02:46:12.916Z,67.70
2019-03-18T02:48:40.892Z,67.70
2019-03-18T02:51:09.339Z,67.40
2019-03-18T02:53:37.693Z,68.00
2019-03-18T02:56:05.676Z,67.80
2019-03-18T02:58:33.871Z,68.60
2019-03-18T03:01:02.073Z,68.80
2019-03-18T03:03:30.045Z,68.80
2019-03-18T03:05:58.075Z,69.10
2019-03-18T03:08:26.185Z,69.30
2019-03-18T03:10:54.286Z,69.30
2019-03-18T03:13:22.312Z,69.80
2019-03-18T03:15:50.328Z,70.10
2019-03-18T03:18:18.399Z,70.30
2019-03-18T03:20:46.563Z,70.10
2019-03-18T03:23:14.792Z,70.10
2019-03-18T03:25:43.058Z,69.80
2019-03-18T03:28:11.133Z,70.20
2019-03-18T03:30:41.896Z,69.90
2019-03-18T03:33:10.475Z,70.50
2019-03-18T03:35:38.973Z,69.70
2019-03-18T03:38:07.247Z,70.20
2019-03-18T03:40:35.543Z,70.60
2019-03-18T03:43:03.873Z,69.90
2019-03-18T03:45:31.913Z,69.40
2019-03-18T03:48:00.157Z,69.40
2019-03-18T03:50:28.141Z,69.80
2019-03-18T03:52:56.456Z,69.50
2019-03-18T03:55:24.742Z,69.00
2019-03-18T03:57:52.779Z,68.90
2019-03-18T04:00:20.803Z,69.90
2019-03-18T04:02:48.887Z,69.40
2019-03-18T04:05:17.244Z,69.80
2019-03-18T04:07:45.401Z,68.20
2019-03-18T04:10:14.100Z,68.10
2019-03-18T04:12:42.135Z,68.50
2019-03-18T04:15:11.531Z,67.90
2019-03-18T04:17:39.600Z,67.60
2019-03-18T04:20:08.521Z,66.90
2019-03-18T04:22:36.565Z,67.00
2019-03-18T04:25:05.072Z,67.00
2019-03-18T04:27:33.330Z,66.90
2019-03-18T04:30:02.480Z,66.60
2019-03-18T04:32:30.601Z,66.70
2019-03-18T04:34:58.929Z,66.70
2019-03-18T04:37:27.205Z,66.60
2019-03-18T04:39:55.238Z,67.00
2019-03-18T04:42:23.643Z,67.60
2019-03-18T04:44:52.170Z,67.50
2019-03-18T04:47:20.312Z,68.10
2019-03-18T04:49:48.486Z,67.80
2019-03-18T04:52:17.159Z,67.60
2019-03-18T04:54:46.077Z,68.00
2019-03-18T04:57:14.280Z,67.70
2019-03-18T04:59:42.257Z,67.10
2019-03-18T05:02:10.286Z,67.20
2019-03-18T05:04:38.554Z,68.20
2019-03-18T05:07:06.619Z,67.70
2019-03-18T05:09:34.622Z,67.90
2019-03-18T05:12:02.640Z,68.60
2019-03-18T05:14:32.197Z,68.80
2019-03-18T05:17:01.787Z,69.00
2019-03-18T05:19:31.696Z,69.30
2019-03-18T05:21:59.975Z,69.40
2019-03-18T05:24:28.373Z,69.60
2019-03-18T05:26:57.132Z,69.80
2019-03-18T05:29:25.593Z,70.00
2019-03-18T05:31:54.044Z,70.00
2019-03-18T05:34:22.122Z,69.90
2019-03-18T05:36:50.898Z,69.10
2019-03-18T05:39:19.589Z,69.90
2019-03-18T05:41:48.216Z,70.60
2019-03-18T05:44:16.620Z,69.80
2019-03-18T05:46:44.828Z,69.70
2019-03-18T05:49:14.547Z,70.10
2019-03-18T05:51:42.595Z,69.90
2019-03-18T05:54:11.119Z,70.40
2019-03-18T05:56:42.787Z,70.00
2019-03-18T05:59:10.847Z,70.60
2019-03-18T06:01:38.926Z,70.40
2019-03-18T06:04:08.256Z,70.80
2019-03-18T06:06:36.423Z,70.20
2019-03-18T06:09:06.270Z,69.50
2019-03-18T06:11:34.818Z,68.90
2019-03-18T06:14:03.193Z,68.90
2019-03-18T06:16:31.775Z,68.60
2019-03-18T06:19:00.382Z,68.20
2019-03-18T06:21:28.982Z,69.70
2019-03-18T06:23:57.412Z,69.70
2019-03-18T06:26:27.784Z,69.10
2019-03-18T06:28:56.960Z,68.90
2019-03-18T06:31:25.215Z,67.90
2019-03-18T06:33:53.597Z,65.60
2019-03-18T06:36:21.769Z,65.90
2019-03-18T06:38:49.878Z,64.50
2019-03-18T06:41:17.955Z,65.90
2019-03-18T06:43:47.419Z,65.00
2019-03-18T06:46:15.566Z,64.60
2019-03-18T06:48:43.559Z,63.20
2019-03-18T06:51:11.705Z,63.70
2019-03-18T06:53:40.322Z,62.20
2019-03-18T06:56:08.866Z,62.80
2019-03-18T06:58:37.018Z,61.50
2019-03-18T07:01:05.116Z,60.20
2019-03-18T07:03:35.464Z,61.00
2019-03-18T07:06:03.603Z,60.70
2019-03-18T07:08:31.644Z,59.80
2019-03-18T07:11:00.026Z,58.90
2019-03-18T07:13:30.323Z,59.70
2019-03-18T07:16:00.123Z,59.60
2019-03-18T07:18:28.935Z,60.00
2019-03-18T07:20:57.399Z,59.00
2019-03-18T07:23:25.730Z,59.10
2019-03-18T07:25:53.762Z,59.40
2019-03-18T07:28:21.886Z,59.70
2019-03-18T07:30:49.985Z,57.20
2019-03-18T07:33:18.035Z,57.50
2019-03-18T07:35:46.063Z,56.70
2019-03-18T07:38:14.317Z,57.00
2019-03-18T07:40:42.347Z,57.00
2019-03-18T07:43:10.416Z,57.10
2019-03-18T07:45:38.487Z,56.70
2019-03-18T07:48:06.807Z,56.90
2019-03-18T07:50:35.327Z,57.20
2019-03-18T07:53:03.300Z,56.20
2019-03-18T07:55:32.133Z,56.60
2019-03-18T07:58:01.331Z,55.40
2019-03-18T08:00:29.325Z,55.90
2019-03-18T08:02:57.696Z,55.60
2019-03-18T08:05:26.185Z,56.60
2019-03-18T08:07:54.236Z,55.50
2019-03-18T08:10:22.253Z,55.50
2019-03-18T08:12:51.484Z,56.00
2019-03-18T08:15:19.612Z,55.80
2019-03-18T08:17:48.073Z,56.20
2019-03-18T08:20:16.378Z,54.90
2019-03-18T08:22:44.807Z,54.90
2019-03-18T08:25:12.777Z,55.00
2019-03-18T08:27:42.438Z,55.50
2019-03-18T08:30:10.852Z,56.70
2019-03-18T08:32:39.234Z,57.10
2019-03-18T08:35:09.653Z,57.60
2019-03-18T08:37:37.819Z,59.40
2019-03-18T08:40:06.743Z,65.50
2019-03-18T08:42:35.040Z,66.20
2019-03-18T08:45:03.927Z,68.20
2019-03-18T08:47:32.131Z,68.20
2019-03-18T08:50:00.348Z,69.00
2019-03-18T08:52:28.849Z,69.70
2019-03-18T08:54:57.248Z,71.80
2019-03-18T08:57:25.330Z,70.30
2019-03-18T08:59:53.361Z,70.10
2019-03-18T09:02:22.204Z,70.50
2019-03-18T09:04:50.434Z,69.10
2019-03-18T09:07:19.737Z,70.00
2019-03-18T09:09:47.872Z,64.40
2019-03-18T09:12:17.264Z,65.10
2019-03-18T09:14:45.241Z,63.30
2019-03-18T09:17:13.653Z,62.70
2019-03-18T09:19:42.338Z,61.80
2019-03-18T09:22:10.659Z,62.00
2019-03-18T09:24:38.696Z,58.00
2019-03-18T09:27:07.991Z,57.90
2019-03-18T09:29:36.493Z,58.50
2019-03-18T09:32:04.542Z,56.50
2019-03-18T09:34:32.508Z,57.20
2019-03-18T09:37:00.828Z,57.20
2019-03-18T09:39:28.829Z,54.10
2019-03-18T09:41:57.175Z,54.50
2019-03-18T09:44:25.206Z,52.60
2019-03-18T09:46:53.249Z,51.70
2019-03-18T09:49:22.262Z,52.10
2019-03-18T09:51:50.484Z,51.80
2019-03-18T09:54:18.943Z,51.00
2019-03-18T09:56:47.089Z,51.70
2019-03-18T09:59:18.485Z,50.10
2019-03-18T10:01:49.150Z,50.80
2019-03-18T10:04:20.620Z,50.30
2019-03-18T10:06:51.679Z,50.20
2019-03-18T10:09:27.362Z,48.30
2019-03-18T10:11:59.618Z,48.10
2019-03-18T10:14:28.101Z,46.40
2019-03-18T10:17:09.100Z,48.10
2019-03-18T10:19:33.477Z,45.60
2019-03-18T10:21:57.914Z,46.50
2019-03-18T10:24:26.055Z,45.40
2019-03-18T10:26:54.493Z,45.50
2019-03-18T10:29:22.584Z,44.70
2019-03-18T10:31:50.981Z,45.30
2019-03-18T10:34:18.996Z,45.40
2019-03-18T10:36:47.051Z,44.80
2019-03-18T10:39:15.541Z,43.40
2019-03-18T10:41:44.807Z,43.90
2019-03-18T10:44:15.816Z,43.60
2019-03-18T10:46:43.780Z,44.80
2019-03-18T10:49:11.818Z,43.40
2019-03-18T10:51:40.053Z,42.40
2019-03-18T10:54:08.642Z,43.20
2019-03-18T10:56:36.986Z,41.90
2019-03-18T10:59:05.265Z,43.90
2019-03-18T11:01:33.653Z,45.00
2019-03-18T11:04:01.686Z,43.30
2019-03-18T11:06:30.199Z,43.80
2019-03-18T11:08:58.251Z,41.80
2019-03-18T11:11:26.247Z,42.00
2019-03-18T11:13:54.706Z,40.70
2019-03-18T11:16:23.809Z,39.60
2019-03-18T11:18:52.337Z,40.30
2019-03-18T11:21:20.459Z,39.50
2019-03-18T11:23:48.856Z,38.30
2019-03-18T11:26:16.945Z,38.90
2019-03-18T11:28:49.144Z,38.10
2019-03-18T11:31:17.926Z,40.10
2019-03-18T11:33:46.617Z,39.60
2019-03-18T11:36:15.123Z,38.30
2019-03-18T11:38:43.675Z,40.30
2019-03-18T11:41:11.804Z,39.80
2019-03-18T11:43:39.943Z,40.20
2019-03-18T11:46:09.392Z,39.70
2019-03-18T11:48:43.749Z,40.60
2019-03-18T11:51:15.952Z,39.00
2019-03-18T11:53:44.571Z,38.30
2019-03-18T11:56:13.296Z,36.40
2019-03-18T11:58:42.553Z,35.30
2019-03-18T12:01:10.936Z,37.00
2019-03-18T12:03:38.946Z,38.00
2019-03-18T12:06:07.028Z,38.50
2019-03-18T12:08:35.132Z,38.80
2019-03-18T12:11:05.069Z,37.80
2019-03-18T12:13:35.319Z,37.80
2019-03-18T12:16:03.883Z,36.90
2019-03-18T12:18:35.737Z,37.10
2019-03-18T12:21:04.633Z,35.20
2019-03-18T12:23:33.836Z,33.60
2019-03-18T12:26:02.859Z,34.00
2019-03-18T12:28:31.039Z,34.00
2019-03-18T12:31:00.892Z,33.50
2019-03-18T12:33:28.976Z,35.00
2019-03-18T12:35:58.584Z,34.30
2019-03-18T12:38:27.232Z,32.90
2019-03-18T12:40:59.595Z,31.90
2019-03-18T12:43:31.564Z,32.30
2019-03-18T12:46:00.730Z,31.90
2019-03-18T12:48:29.834Z,30.50
2019-03-18T12:50:58.944Z,31.10
2019-03-18T12:53:28.181Z,32.20
2019-03-18T12:56:00.865Z,31.80
2019-03-18T12:58:30.631Z,32.80
2019-03-18T13:01:11.823Z,32.10
2019-03-18T13:03:30.811Z,32.90
2019-03-18T13:05:59.460Z,31.80
2019-03-18T13:08:28.436Z,31.40
2019-03-18T13:10:58.374Z,31.80
2019-03-18T13:13:27.310Z,32.50
2019-03-18T13:15:56.175Z,33.20
2019-03-18T13:18:24.471Z,33.90
2019-03-18T13:20:53.419Z,32.50
2019-03-18T13:23:22.457Z,34.00
2019-03-18T13:25:54.082Z,34.80
2019-03-18T13:28:24.377Z,33.20
2019-03-18T13:30:55.843Z,32.30
2019-03-18T13:33:24.819Z,32.40
2019-03-18T13:35:53.976Z,31.70
2019-03-18T13:38:24.548Z,32.30
2019-03-18T13:40:53.856Z,32.70
2019-03-18T13:43:23.194Z,33.20
2019-03-18T13:45:55.919Z,34.10
2019-03-18T13:48:24.945Z,34.30
2019-03-18T13:50:54.583Z,34.80
2019-03-18T13:53:22.841Z,35.70
2019-03-18T13:55:51.607Z,37.70
2019-03-18T13:58:19.617Z,38.40
2019-03-18T14:00:47.829Z,37.80
2019-03-18T14:03:15.907Z,38.20
2019-03-18T14:05:46.801Z,36.50
2019-03-18T14:08:14.794Z,36.90
2019-03-18T14:10:43.187Z,37.50
2019-03-18T14:13:11.554Z,38.10
2019-03-18T14:15:39.793Z,38.30
2019-03-18T14:18:07.969Z,38.70
2019-03-18T14:20:36.091Z,39.90
2019-03-18T14:23:06.648Z,45.50
2019-03-18T14:25:34.678Z,45.70
2019-03-18T14:28:02.726Z,55.00
2019-03-18T14:30:30.989Z,55.00
2019-03-18T14:32:59.156Z,58.20
2019-03-18T14:35:27.453Z,64.80
2019-03-18T14:37:55.442Z,65.70
2019-03-18T14:40:25.283Z,69.20
2019-03-18T14:42:53.292Z,71.10
2019-03-18T14:45:21.523Z,71.60
2019-03-18T14:47:49.816Z,72.20
2019-03-18T14:50:18.397Z,70.10
2019-03-18T14:52:46.527Z,69.70
2019-03-18T14:55:14.546Z,70.90
2019-03-18T14:57:42.528Z,68.60
2019-03-18T15:00:17.581Z,68.90
2019-03-18T15:02:46.327Z,67.80
2019-03-18T15:05:14.764Z,66.30
2019-03-18T15:07:48.296Z,64.30
2019-03-18T15:10:17.151Z,61.40
2019-03-18T15:12:45.642Z,61.50
2019-03-18T15:15:15.235Z,55.30
2019-03-18T15:17:44.512Z,49.00
2019-03-18T15:20:12.649Z,49.40
2019-03-18T15:22:45.256Z,43.60
2019-03-18T15:25:17.868Z,45.10
2019-03-18T15:27:45.907Z,41.10
2019-03-18T15:30:17.336Z,41.60
2019-03-18T15:32:45.699Z,38.90
2019-03-18T15:35:14.113Z,36.50
2019-03-18T15:37:42.966Z,35.90
2019-03-18T15:40:14.243Z,35.90
2019-03-18T15:42:42.427Z,36.10
2019-03-18T15:45:11.858Z,35.20
2019-03-18T15:47:40.093Z,35.80
2019-03-18T15:50:12.989Z,35.20
2019-03-18T15:52:41.523Z,37.50
2019-03-18T15:55:09.633Z,34.30
2019-03-18T15:57:38.104Z,33.10
2019-03-18T16:00:11.684Z,33.50
2019-03-18T16:02:39.679Z,34.40
2019-03-18T16:05:08.200Z,36.00
2019-03-18T16:07:36.203Z,35.40
2019-03-18T16:10:04.469Z,35.80
2019-03-18T16:12:32.472Z,34.00
2019-03-18T16:15:00.652Z,30.30
2019-03-18T16:17:29.261Z,30.60
2019-03-18T16:19:57.954Z,30.70
2019-03-18T16:22:25.888Z,31.50
2019-03-18T16:24:54.247Z,29.80
2019-03-18T16:27:22.325Z,29.00
2019-03-18T16:29:50.266Z,30.00
2019-03-18T16:32:18.794Z,31.00
2019-03-18T16:34:46.901Z,31.00
2019-03-18T16:37:15.264Z,32.80
2019-03-18T16:39:43.307Z,35.00
2019-03-18T16:42:11.346Z,35.30
2019-03-18T16:44:39.829Z,37.20
2019-03-18T16:47:07.801Z,39.70
2019-03-18T16:49:36.554Z,40.70
2019-03-18T16:52:07.439Z,41.20
2019-03-18T16:54:39.357Z,41.20
2019-03-18T16:57:08.432Z,43.50
2019-03-18T16:59:41.841Z,43.20
2019-03-18T17:02:11.264Z,43.90
2019-03-18T17:04:40.763Z,43.30
2019-03-18T17:07:10.181Z,44.60
2019-03-18T17:09:40.947Z,44.40
2019-03-18T17:12:11.294Z,44.90
2019-03-18T17:14:40.373Z,45.50
2019-03-18T17:17:09.461Z,49.30
2019-03-18T17:19:38.585Z,55.30
2019-03-18T17:22:07.992Z,55.30
2019-03-18T17:24:37.014Z,56.90
2019-03-18T17:27:06.582Z,57.70
2019-03-18T17:29:35.777Z,58.00
2019-03-18T17:32:04.249Z,58.70
2019-03-18T17:34:32.573Z,58.90
2019-03-18T17:37:00.721Z,58.70
2019-03-18T17:39:30.733Z,59.90
2019-03-18T17:41:59.828Z,60.50
2019-03-18T17:44:29.133Z,62.00
2019-03-18T17:46:58.207Z,63.30
2019-03-18T17:49:26.648Z,64.50
2019-03-18T17:51:59.378Z,65.00
2019-03-18T17:54:28.401Z,66.30
2019-03-18T17:57:06.688Z,66.10
2019-03-18T17:59:30.223Z,65.20
2019-03-18T18:01:58.989Z,66.10
2019-03-18T18:04:27.501Z,66.40
2019-03-18T18:06:56.019Z,67.00
2019-03-18T18:09:24.912Z,67.20
2019-03-18T18:11:52.932Z,68.60
2019-03-18T18:14:21.203Z,71.70
2019-03-18T18:16:59.758Z,70.50
2019-03-18T18:19:28.365Z,71.30
2019-03-18T18:21:59.472Z,69.40
2019-03-18T18:24:27.885Z,69.40
2019-03-18T18:26:56.589Z,68.50
2019-03-18T18:29:25.020Z,69.40
2019-03-18T18:31:53.043Z,71.00
2019-03-18T18:34:21.198Z,70.80
2019-03-18T18:36:49.646Z,71.20
2019-03-18T18:39:17.790Z,70.50
2019-03-18T18:41:45.807Z,71.10
2019-03-18T18:44:16.542Z,71.90
2019-03-18T18:46:44.649Z,72.00
2019-03-18T18:49:12.795Z,72.50
2019-03-18T18:51:41.155Z,72.40
2019-03-18T18:54:09.297Z,73.50
2019-03-18T18:56:37.389Z,74.30
2019-03-18T18:59:05.459Z,73.90
2019-03-18T19:01:33.586Z,74.40
2019-03-18T19:04:02.065Z,72.10
2019-03-18T19:06:30.395Z,72.70
2019-03-18T19:08:58.630Z,71.80
2019-03-18T19:11:26.739Z,70.00
2019-03-18T19:13:54.791Z,70.00
2019-03-18T19:16:22.897Z,71.30
2019-03-18T19:18:51.226Z,70.20
2019-03-18T19:21:19.356Z,70.40
2019-03-18T19:23:47.664Z,70.60
2019-03-18T19:26:16.242Z,71.10
2019-03-18T19:28:44.260Z,73.90
2019-03-18T19:31:13.118Z,74.40
2019-03-18T19:33:43.833Z,75.20
2019-03-18T19:36:13.416Z,73.70
2019-03-18T19:38:41.682Z,73.90
2019-03-18T19:41:10.012Z,74.00
2019-03-18T19:43:38.532Z,75.00
2019-03-18T19:46:06.610Z,74.50
2019-03-18T19:48:37.756Z,74.60
2019-03-18T19:51:05.765Z,74.80
2019-03-18T19:53:33.925Z,74.00
2019-03-18T19:56:02.212Z,73.60
2019-03-18T19:58:30.958Z,74.10
2019-03-18T20:03:28.362Z,73.60
2019-03-18T20:05:56.400Z,74.30
2019-03-18T20:08:24.474Z,75.40
2019-03-18T20:10:52.801Z,73.80
2019-03-18T20:13:20.963Z,73.70
2019-03-18T20:15:49.355Z,74.20
2019-03-18T20:18:17.544Z,73.30
2019-03-18T20:20:45.703Z,74.10
2019-03-18T20:23:14.288Z,73.80
2019-03-18T20:25:42.909Z,72.90
2019-03-18T20:28:11.418Z,73.20
2019-03-18T20:30:39.694Z,73.50
2019-03-18T20:33:10.346Z,73.70
2019-03-18T20:35:38.828Z,73.00
2019-03-18T20:38:07.097Z,72.70
2019-03-18T20:40:35.299Z,73.40
2019-03-18T20:43:03.358Z,73.60
2019-03-18T20:45:31.494Z,73.70
2019-03-18T20:47:59.921Z,74.10
2019-03-18T20:50:28.358Z,73.50
2019-03-18T20:52:57.284Z,74.40
2019-03-18T20:55:26.022Z,74.20
2019-03-18T20:57:55.118Z,74.90
2019-03-18T21:00:25.146Z,74.50
2019-03-18T21:02:53.592Z,74.70
2019-03-18T21:05:25.143Z,75.10
2019-03-18T21:07:54.297Z,74.90
2019-03-18T21:10:23.689Z,75.00
2019-03-18T21:12:52.742Z,75.10
2019-03-18T21:15:20.817Z,74.60
2019-03-18T21:17:52.437Z,74.60
2019-03-18T21:20:21.300Z,74.70
2019-03-18T21:22:49.607Z,74.70
2019-03-18T21:25:18.535Z,74.90
2019-03-18T21:27:46.984Z,75.40
2019-03-18T21:30:14.984Z,75.70
2019-03-18T21:32:43.108Z,75.00
2019-03-18T21:35:11.746Z,74.70
2019-03-18T21:37:39.845Z,75.50
2019-03-18T21:40:10.415Z,74.90
2019-03-18T21:42:38.504Z,75.40
2019-03-18T21:45:10.500Z,75.30
2019-03-18T21:47:38.643Z,75.50
2019-03-18T21:50:07.355Z,75.50
2019-03-18T21:52:36.212Z,75.50
2019-03-18T21:55:04.723Z,76.20
2019-03-18T22:00:04.480Z,76.40
2019-03-18T22:02:33.801Z,76.90
2019-03-18T22:05:03.230Z,76.70
2019-03-18T22:07:31.338Z,77.30
2019-03-18T22:09:59.388Z,77.60
2019-03-18T22:12:27.734Z,77.50
2019-03-18T22:14:56.038Z,77.20
2019-03-18T22:17:24.421Z,77.20
2019-03-18T22:19:53.598Z,77.10
2019-03-18T22:22:21.688Z,76.50
2019-03-18T22:24:50.118Z,76.40
2019-03-18T22:27:18.555Z,76.20
2019-03-18T22:29:46.583Z,75.60
2019-03-18T22:32:14.729Z,76.10
2019-03-18T22:34:43.717Z,75.80
2019-03-18T22:37:11.688Z,76.70
2019-03-18T22:39:39.662Z,75.70
2019-03-18T22:42:07.971Z,75.70
2019-03-18T22:44:35.958Z,76.30
2019-03-18T22:49:33.386Z,75.60
2019-03-18T22:52:01.383Z,75.90
2019-03-18T22:54:29.460Z,76.50
2019-03-18T22:56:57.819Z,75.70
2019-03-18T22:59:25.802Z,75.70
2019-03-18T23:01:53.815Z,76.00
2019-03-18T23:04:21.874Z,76.40
2019-03-18T23:06:49.863Z,76.60
2019-03-18T23:09:19.695Z,75.70
2019-03-18T23:11:48.052Z,76.10
2019-03-18T23:14:17.631Z,76.20
2019-03-18T23:16:45.832Z,77.00
2019-03-18T23:19:14.808Z,74.80
2019-03-18T23:21:42.785Z,76.10
2019-03-18T23:24:10.819Z,76.30
2019-03-18T23:26:38.838Z,76.60
2019-03-18T23:29:07.654Z,75.20
2019-03-18T23:31:35.792Z,76.40
2019-03-18T23:34:04.992Z,75.00
2019-03-18T23:36:33.162Z,75.80
2019-03-18T23:39:01.938Z,75.70
2019-03-18T23:41:30.426Z,76.30
2019-03-18T23:43:58.579Z,76.10
2019-03-18T23:46:26.611Z,76.30
2019-03-18T23:48:54.893Z,77.00
2019-03-18T23:51:24.732Z,76.40
2019-03-18T23:53:54.092Z,75.80
2019-03-18T23:56:25.260Z,75.70
2019-03-18T23:58:54.069Z,75.70
